Flight Track Log - Related Links

Times and Time Zones

All times are in EDT time to prevent confusion due to time zone crossing. See the SWA905 flight status page for this flight to view local times or setup timezone preferences in your user account.

Time Position Orientation Groundspeed Altitude Reporting Facility
EDT Latitude Longitude Course Direction KTS MPH feet Rate Location/Type
Thu 04:58:15 PM 40.7757 -73.1471 158° South  Level FlightAware Approximate
Thu 04:59:15 PM 40.7167 -73.1164 85° East 154 177 4,000  Level Boston Center
Thu 05:00:15 PM 40.7233 -73.0125 81° East 165 190 4,000 900 Level Boston Center
Thu 05:01:15 PM 40.7364 -72.9083 91° East 244 281 5,800 2,350 Climbing Boston Center
Thu 05:02:15 PM 40.7347 -72.8044 91° East 297 342 8,700 2,400 Climbing Boston Center
Thu 05:03:15 PM 40.7331 -72.6867 96° East 306 352 10,600 1,700 Climbing Boston Center
Thu 05:04:15 PM 40.7228 -72.5497 104° East 343 395 12,100 1,900 Climbing Boston Center
Thu 05:05:15 PM 40.6958 -72.4100 170° South 375 432 14,400 2,050 Climbing Boston Center
Thu 05:06:15 PM 40.5997 -72.3881 243° Southwest 315 362 16,200 1,750 Climbing Boston Center
Thu 05:07:15 PM 40.5539 -72.5056 262° West 217 250 17,900 1,750 Climbing Boston Center
Thu 05:08:15 PM 40.5392 -72.6450 256° West 289 333 19,700 1,800 Climbing Boston Center
Thu 05:09:15 PM 40.5119 -72.7842 256° West 341 392 21,500 1,607 Climbing Boston Center
Thu 05:11:18 PM 40.4603 -73.0650 256° West 401 461 24,600 2,164 Climbing New York Center
Thu 05:12:18 PM 40.4347 -73.2006 258° West 401 461 28,100 2,430 Climbing New York Center
Thu 05:13:19 PM 40.4153 -73.3253 256° West 379 436 29,500 1,271 Climbing New York Center
Thu 05:14:16 PM 40.3917 -73.4497 256° West 363 418 30,600 1,231 Climbing New York Center
Thu 05:15:16 PM 40.3681 -73.5769 258° West 358 412 31,900 645 Climbing New York Center
Thu 05:16:17 PM 40.3483 -73.7014 267° West 358 412 31,900  Level New York Center
Thu 05:17:17 PM 40.3428 -73.8292 266° West 358 412 31,900  Level New York Center
Thu 05:18:17 PM 40.3353 -73.9567 259° West 353 406 31,900  Level New York Center
Thu 05:19:16 PM 40.3172 -74.0811 259° West 353 406 31,900  Level New York Center
Thu 05:20:16 PM 40.2992 -74.2081 262° West 353 406 31,900 843 Level New York Center
Thu 05:21:17 PM 40.2850 -74.3325 258° West 353 406 33,600 1,190 Climbing New York Center
Thu 05:22:17 PM 40.2644 -74.4567 260° West 353 406 34,300 800 Climbing New York Center
Thu 05:23:17 PM 40.2481 -74.5781 259° West 348 400 35,200 843 Climbing New York Center
Thu 05:24:18 PM 40.2269 -74.7156 259° West 353 406 36,000 397 Climbing New York Center
Thu 05:25:18 PM 40.2106 -74.8261 261° West 353 406 36,000  Level New York Center
Thu 05:26:16 PM 40.1958 -74.9503 260° West 353 406 36,000  Level New York Center
Thu 05:27:17 PM 40.1789 -75.0742 258° West 353 406 36,000  Level New York Center
Thu 05:28:17 PM 40.1569 -75.2142 258° West 353 406 36,000  Level New York Center
Thu 05:29:19 PM 40.1378 -75.3350 238° Southwest 353 406 36,000  Level New York Center
Thu 05:30:16 PM 40.0856 -75.4428 228° Southwest 344 396 36,000  Level New York Center
Thu 05:31:17 PM 40.0192 -75.5386 226° Southwest 350 403 36,000  Level New York Center
Thu 05:32:17 PM 39.9508 -75.6314 228° Southwest 356 410 36,000  Level New York Center
Thu 05:33:18 PM 39.8822 -75.7294 232° Southwest 368 423 36,000  Level New York Center
Thu 05:34:18 PM 39.8214 -75.8306 228° Southwest 368 423 36,000  Level New York Center
Thu 05:35:16 PM 39.7525 -75.9311 232° Southwest 368 423 36,000  Level New York Center
Thu 05:37:47 PM 39.6058 -76.1706 231° Southwest 359 413 36,000  Level Washington Center
Thu 05:38:47 PM 39.5431 -76.2722 229° Southwest 364 419 36,000  Level Washington Center
Thu 05:39:45 PM 39.4756 -76.3739 229° Southwest 370 426 36,000  Level Washington Center
Thu 05:40:46 PM 39.4083 -76.4725 232° Southwest 375 432 36,000  Level Washington Center
Thu 05:41:47 PM 39.3364 -76.5897 230° Southwest 375 432 36,000  Level Washington Center
Thu 05:42:48 PM 39.2711 -76.6908 231° Southwest 375 432 36,000  Level Washington Center
Thu 05:43:45 PM 39.2056 -76.7942 230° Southwest 375 432 36,000  Level Washington Center
Thu 05:44:46 PM 39.1397 -76.8950 230° Southwest 375 432 36,000  Level Washington Center
Thu 05:45:47 PM 39.0719 -76.9981 224° Southwest 375 432 36,000  Level Washington Center
Thu 05:46:45 PM 38.9978 -77.0900 221° Southwest 375 432 36,000  Level Washington Center
Thu 05:47:46 PM 38.9217 -77.1764 219° Southwest 375 432 36,000  Level Washington Center
Thu 05:48:47 PM 38.8392 -77.2628 220° Southwest 375 432 36,000  Level Washington Center
Thu 05:49:46 PM 38.7608 -77.3461 221° Southwest 380 437 36,000  Level Washington Center
Thu 05:50:46 PM 38.6825 -77.4347 220° Southwest 385 443 36,000  Level Washington Center
Thu 05:51:46 PM 38.5997 -77.5231 221° Southwest 385 443 36,000  Level Washington Center
Thu 05:52:47 PM 38.5211 -77.6111 219° Southwest 377 434 36,000  Level Washington Center
Thu 05:53:47 PM 38.4383 -77.6964 220° Southwest 382 440 36,000  Level Washington Center
Thu 05:54:45 PM 38.3575 -77.7842 220° Southwest 382 440 36,000  Level Washington Center
Thu 05:56:46 PM 38.1936 -77.9617 219° Southwest 387 445 36,000  Level Washington Center
Thu 05:57:47 PM 38.1106 -78.0486 220° Southwest 387 445 36,000  Level Washington Center
Thu 05:58:45 PM 38.0275 -78.1356 221° Southwest 387 445 36,000  Level Washington Center
Thu 05:59:45 PM 37.9483 -78.2225 216° Southwest 381 438 36,000  Level Washington Center
Thu 06:00:46 PM 37.8611 -78.3036 216° Southwest 387 445 36,000  Level Washington Center
Thu 06:01:47 PM 37.7736 -78.3844 217° Southwest 398 458 36,000  Level Washington Center
Thu 06:02:47 PM 37.6861 -78.4678 216° Southwest 398 458 36,000  Level Washington Center
Thu 06:03:47 PM 37.6072 -78.5408 217° Southwest 398 458 36,000  Level Washington Center
Thu 06:04:45 PM 37.5197 -78.6239 216° Southwest 398 458 36,000  Level Washington Center
Thu 06:05:46 PM 37.4322 -78.7042 216° Southwest 398 458 36,000  Level Washington Center
Thu 06:06:47 PM 37.3444 -78.7842 217° Southwest 398 458 36,000  Level Washington Center
Thu 06:07:47 PM 37.2481 -78.8742 217° Southwest 403 464 36,000  Level Washington Center
Thu 06:08:45 PM 37.1603 -78.9564 217° Southwest 403 464 36,000  Level Washington Center
Thu 06:09:45 PM 37.0725 -79.0383 216° Southwest 398 458 36,000  Level Washington Center
Thu 06:10:46 PM 36.9847 -79.1178 217° Southwest 398 458 36,000  Level Washington Center
Thu 06:11:47 PM 36.8967 -79.2019 217° Southwest 398 458 36,000  Level Washington Center
Thu 06:12:45 PM 36.8106 -79.2836 215° Southwest 398 458 36,000  Level Washington Center
Thu 06:13:46 PM 36.7269 -79.3572 217° Southwest 398 458 36,000  Level Washington Center
Thu 06:14:46 PM 36.6389 -79.4386 215° Southwest 398 458 36,000  Level Washington Center
Thu 06:16:04 PM 36.5103 -79.5522 216° Southwest 400 460 36,000  Level Atlanta Center
Thu 06:17:04 PM 36.4294 -79.6264 216° Southwest 405 466 36,000  Level Atlanta Center
Thu 06:18:04 PM 36.3386 -79.7086 219° Southwest 405 466 36,000  Level Atlanta Center
Thu 06:19:04 PM 36.2500 -79.7983 216° Southwest 416 479 36,000  Level Atlanta Center
Thu 06:20:04 PM 36.1486 -79.8886 212° Southwest 411 473 36,000  Level Atlanta Center
Thu 06:21:04 PM 36.0572 -79.9600 204° Southwest 406 467 36,000  Level Atlanta Center
Thu 06:22:04 PM 35.9528 -80.0167 203° Southwest 406 467 36,000  Level Atlanta Center
Thu 06:23:04 PM 35.8439 -80.0733 202° Southwest 416 479 36,000  Level Atlanta Center
Thu 06:24:04 PM 35.7372 -80.1269 205° Southwest 416 479 36,000  Level Atlanta Center
Thu 06:25:04 PM 35.6328 -80.1856 202° Southwest 416 479 36,000  Level Atlanta Center
Thu 06:26:04 PM 35.5239 -80.2392 203° Southwest 422 486 36,000  Level Atlanta Center
Thu 06:27:04 PM 35.4314 -80.2869 202° Southwest 416 479 36,000  Level Atlanta Center
Thu 06:28:04 PM 35.3206 -80.3428 202° Southwest 416 479 36,000  Level Atlanta Center
Thu 06:29:04 PM 35.2178 -80.3931 202° Southwest 410 472 36,000  Level Atlanta Center
Thu 06:31:34 PM 34.9511 -80.5219 203° Southwest 414 476 36,000  Level Jacksonville Center
Thu 06:32:34 PM 34.8311 -80.5836 202° Southwest 414 476 36,000  Level Jacksonville Center
Thu 06:33:34 PM 34.7403 -80.6289 201° Southwest 408 470 36,000  Level Jacksonville Center
Thu 06:34:34 PM 34.6328 -80.6797 202° Southwest 413 475 36,000  Level Jacksonville Center
Thu 06:35:34 PM 34.5067 -80.7408 203° Southwest 433 498 36,000  Level Jacksonville Center
Thu 06:36:34 PM 34.3989 -80.7964 200° South 431 496 36,000  Level Jacksonville Center
Thu 06:37:34 PM 34.2914 -80.8442 201° Southwest 421 484 36,000  Level Jacksonville Center
Thu 06:38:34 PM 34.2022 -80.8864 201° Southwest 406 467 36,000  Level Jacksonville Center
Thu 06:39:34 PM 34.0947 -80.9367 201° Southwest 411 473 36,000  Level Jacksonville Center
Thu 06:40:34 PM 33.9722 -80.9919 202° Southwest 411 473 36,000  Level Jacksonville Center
Thu 06:41:34 PM 33.8625 -81.0442 201° Southwest 417 480 36,000  Level Jacksonville Center
Thu 06:42:34 PM 33.7547 -81.0939 202° Southwest 423 487 36,000  Level Jacksonville Center
Thu 06:43:34 PM 33.6447 -81.1461 202° Southwest 423 487 36,000  Level Jacksonville Center
Thu 06:44:34 PM 33.5369 -81.1981 202° Southwest 428 493 36,000  Level Jacksonville Center
Thu 06:45:34 PM 33.4231 -81.2525 201° Southwest 428 493 36,000  Level Jacksonville Center
Thu 06:46:34 PM 33.3131 -81.3019 201° Southwest 428 493 36,000  Level Jacksonville Center
Thu 06:47:34 PM 33.2008 -81.3533 201° Southwest 428 493 36,000  Level Jacksonville Center
Thu 06:48:34 PM 33.0908 -81.4025 201° Southwest 428 493 36,000  Level Jacksonville Center
Thu 06:49:34 PM 32.9789 -81.4539 201° Southwest 433 498 36,000  Level Jacksonville Center
Thu 06:50:34 PM 32.8644 -81.5075 200° South 433 498 36,000  Level Jacksonville Center
Thu 06:51:34 PM 32.7525 -81.5561 202° Southwest 433 498 36,000  Level Jacksonville Center
Thu 06:52:34 PM 32.6422 -81.6097 201° Southwest 433 498 36,000  Level Jacksonville Center
Thu 06:53:34 PM 32.5406 -81.6556 201° Southwest 433 498 36,000  Level Jacksonville Center
Thu 06:54:34 PM 32.4158 -81.7114 201° Southwest 438 504 36,000  Level Jacksonville Center
Thu 06:55:34 PM 32.3097 -81.7594 201° Southwest 438 504 36,000  Level Jacksonville Center
Thu 06:56:34 PM 32.1850 -81.8150 201° Southwest 448 516 36,000  Level Jacksonville Center
Thu 06:57:34 PM 32.0683 -81.8678 200° South 448 516 36,000  Level Jacksonville Center
Thu 06:58:34 PM 31.9644 -81.9131 200° South 448 516 36,000  Level Jacksonville Center
Thu 06:59:34 PM 31.8333 -81.9706 201° Southwest 453 521 36,000  Level Jacksonville Center
Thu 07:00:34 PM 31.7208 -82.0206 201° Southwest 448 516 36,000  Level Jacksonville Center
Thu 07:01:34 PM 31.6147 -82.0681 201° Southwest 448 516 36,000  Level Jacksonville Center
Thu 07:02:34 PM 31.4961 -82.1203 201° Southwest 453 521 36,000  Level Jacksonville Center
Thu 07:03:34 PM 31.3794 -82.1722 200° South 453 521 36,000  Level Jacksonville Center
Thu 07:04:34 PM 31.2650 -82.2217 201° Southwest 447 514 36,000  Level Jacksonville Center
Thu 07:05:34 PM 31.1483 -82.2736 201° Southwest 447 514 36,000  Level Jacksonville Center
Thu 07:06:34 PM 31.0317 -82.3253 201° Southwest 447 514 36,000  Level Jacksonville Center
Thu 07:07:34 PM 30.9128 -82.3792 200° South 452 520 36,000  Level Jacksonville Center
Thu 07:08:34 PM 30.7981 -82.4283 200° South 452 520 36,000  Level Jacksonville Center
Thu 07:09:34 PM 30.6814 -82.4772 200° South 452 520 36,000  Level Jacksonville Center
Thu 07:10:34 PM 30.5625 -82.5283 187° South 452 520 36,000  Level Jacksonville Center
Thu 07:11:34 PM 30.4394 -82.5456 168° South 452 520 36,000  Level Jacksonville Center
Thu 07:12:34 PM 30.2972 -82.5100 170° South 446 513 36,000  Level Jacksonville Center
Thu 07:13:34 PM 30.1739 -82.4842 169° South 451 519 36,000 -200 Level Jacksonville Center
Thu 07:14:34 PM 30.0486 -82.4558 170° South 451 519 35,600 -700 Descending Jacksonville Center
Thu 07:15:34 PM 29.9275 -82.4300 169° South 452 520 34,600 -1,500 Descending Jacksonville Center
Thu 07:16:34 PM 29.8022 -82.4019 170° South 452 520 32,600 -2,550 Descending Jacksonville Center
Thu 07:17:34 PM 29.6706 -82.3739 172° South 463 533 29,500 -3,000 Descending Jacksonville Center
Thu 07:18:34 PM 29.5431 -82.3531 174° South 470 541 26,600 -2,000 Descending Jacksonville Center
Thu 07:19:34 PM 29.4261 -82.3394 174° South 452 520 25,500 -1,000 Descending Jacksonville Center
Thu 07:20:34 PM 29.3050 -82.3258 174° South 440 506 24,600 -1,450 Descending Jacksonville Center
Thu 07:21:34 PM 29.1922 -82.3122 174° South 429 494 22,600 -2,350 Descending Jacksonville Center
Thu 07:22:34 PM 29.0794 -82.2986 173° South 418 481 19,900 -2,100 Descending Jacksonville Center
Thu 07:23:34 PM 28.9769 -82.2850 174° South 404 465 18,400 -2,150 Descending Jacksonville Center
Thu 07:24:34 PM 28.8767 -82.2736 175° South 384 442 15,600 -1,665 Descending Jacksonville Center
Thu 07:27:03 PM 28.6500 -82.2500 180° South 334 384 12,600 -977 Descending Tampa TRACON
Thu 07:28:15 PM 28.5333 -82.2500 180° South 334 384 12,000 -227 Descending Tampa TRACON
Thu 07:29:15 PM 28.4333 -82.2500 190° South 325 374 12,100 -200 Climbing Tampa TRACON
Thu 07:30:15 PM 28.3500 -82.2667 221° Southwest 336 387 11,600 -550 Descending Tampa TRACON
Thu 07:31:15 PM 28.2833 -82.3333 213° Southwest 334 384 11,000 -789 Descending Tampa TRACON
Thu 07:32:09 PM 28.2167 -82.3833 204° Southwest 310 357 10,100 -1,263 Descending Tampa TRACON
Thu 07:33:09 PM 28.1500 -82.4167 180° South 289 333 8,600 -1,488 Descending Tampa TRACON
Thu 07:34:10 PM 28.0667 -82.4167 180° South 276 318 7,100 -1,417 Descending Tampa TRACON
Thu 07:35:16 PM 27.9833 -82.4167 180° South 263 303 5,600 -1,095 Descending Tampa TRACON
Thu 07:36:16 PM 27.9167 -82.4167 180° South 233 268 4,800 -800 Descending Tampa TRACON

Login

Don't have an account? Register now (free) for customized features, flight alerts, and more!